sensor_id;sensor_type;location;lat;lon;timestamp;P1;durP1;ratioP1;P2;durP2;ratioP2
14599;SDS011;7386;45.586;12.854;2023-05-10T00:02:10;13.57;;;4.50;;
14599;SDS011;7386;45.586;12.854;2023-05-10T00:04:38;15.27;;;4.73;;
14599;SDS011;7386;45.586;12.854;2023-05-10T00:07:07;17.77;;;4.70;;
14599;SDS011;7386;45.586;12.854;2023-05-10T00:09:36;12.17;;;4.40;;
14599;SDS011;7386;45.586;12.854;2023-05-10T00:12:05;7.07;;;4.30;;
14599;SDS011;7386;45.586;12.854;2023-05-10T00:14:33;9.77;;;4.10;;
14599;SDS011;7386;45.586;12.854;2023-05-10T00:17:03;6.03;;;3.97;;
14599;SDS011;7386;45.586;12.854;2023-05-10T00:19:31;7.37;;;4.30;;
14599;SDS011;7386;45.586;12.854;2023-05-10T00:22:00;6.20;;;3.83;;
14599;SDS011;7386;45.586;12.854;2023-05-10T00:24:29;4.93;;;3.90;;
14599;SDS011;7386;45.586;12.854;2023-05-10T00:26:57;6.30;;;3.80;;
14599;SDS011;7386;45.586;12.854;2023-05-10T00:29:26;5.90;;;3.80;;
14599;SDS011;7386;45.586;12.854;2023-05-10T00:31:55;5.00;;;3.80;;
14599;SDS011;7386;45.586;12.854;2023-05-10T00:34:25;6.27;;;3.93;;
14599;SDS011;7386;45.586;12.854;2023-05-10T00:36:53;5.17;;;4.17;;
14599;SDS011;7386;45.586;12.854;2023-05-10T00:39:22;5.10;;;3.70;;
14599;SDS011;7386;45.586;12.854;2023-05-10T00:41:50;4.57;;;3.70;;
14599;SDS011;7386;45.586;12.854;2023-05-10T00:44:19;6.00;;;4.07;;
14599;SDS011;7386;45.586;12.854;2023-05-10T00:46:47;4.73;;;4.00;;
14599;SDS011;7386;45.586;12.854;2023-05-10T00:49:16;5.50;;;3.90;;
14599;SDS011;7386;45.586;12.854;2023-05-10T00:51:46;4.63;;;4.13;;
14599;SDS011;7386;45.586;12.854;2023-05-10T00:54:14;4.33;;;3.73;;
14599;SDS011;7386;45.586;12.854;2023-05-10T00:56:43;4.20;;;3.70;;
14599;SDS011;7386;45.586;12.854;2023-05-10T00:59:15;4.30;;;3.53;;
14599;SDS011;7386;45.586;12.854;2023-05-10T01:01:44;5.90;;;4.30;;
14599;SDS011;7386;45.586;12.854;2023-05-10T01:04:13;4.40;;;3.87;;
14599;SDS011;7386;45.586;12.854;2023-05-10T01:06:42;5.97;;;4.23;;
14599;SDS011;7386;45.586;12.854;2023-05-10T01:09:12;4.97;;;3.73;;
14599;SDS011;7386;45.586;12.854;2023-05-10T01:11:40;5.57;;;3.90;;
14599;SDS011;7386;45.586;12.854;2023-05-10T01:14:09;7.57;;;4.03;;
14599;SDS011;7386;45.586;12.854;2023-05-10T01:16:38;5.87;;;4.10;;
14599;SDS011;7386;45.586;12.854;2023-05-10T01:19:08;4.20;;;3.73;;
14599;SDS011;7386;45.586;12.854;2023-05-10T01:21:42;5.17;;;3.93;;
14599;SDS011;7386;45.586;12.854;2023-05-10T01:24:34;4.13;;;3.73;;
14599;SDS011;7386;45.586;12.854;2023-05-10T01:27:20;5.03;;;3.80;;
14599;SDS011;7386;45.586;12.854;2023-05-10T01:32:45;5.17;;;3.90;;
14599;SDS011;7386;45.586;12.854;2023-05-10T01:35:17;4.53;;;3.70;;
14599;SDS011;7386;45.586;12.854;2023-05-10T01:40:32;7.33;;;3.97;;
14599;SDS011;7386;45.586;12.854;2023-05-10T01:43:03;4.50;;;3.90;;
14599;SDS011;7386;45.586;12.854;2023-05-10T01:45:33;6.10;;;4.30;;
14599;SDS011;7386;45.586;12.854;2023-05-10T01:48:06;5.77;;;3.70;;
14599;SDS011;7386;45.586;12.854;2023-05-10T01:50:37;4.90;;;4.10;;
14599;SDS011;7386;45.586;12.854;2023-05-10T01:53:07;4.47;;;3.80;;
14599;SDS011;7386;45.586;12.854;2023-05-10T01:55:39;4.50;;;3.83;;
14599;SDS011;7386;45.586;12.854;2023-05-10T01:58:13;5.33;;;4.10;;
14599;SDS011;7386;45.586;12.854;2023-05-10T02:00:42;5.83;;;4.00;;
14599;SDS011;7386;45.586;12.854;2023-05-10T02:03:13;7.67;;;4.30;;
14599;SDS011;7386;45.586;12.854;2023-05-10T02:05:43;4.37;;;3.80;;
14599;SDS011;7386;45.586;12.854;2023-05-10T02:08:12;5.03;;;3.80;;
14599;SDS011;7386;45.586;12.854;2023-05-10T02:10:42;5.67;;;4.10;;
14599;SDS011;7386;45.586;12.854;2023-05-10T02:13:11;5.13;;;4.07;;
14599;SDS011;7386;45.586;12.854;2023-05-10T02:15:40;5.83;;;3.77;;
14599;SDS011;7386;45.586;12.854;2023-05-10T02:18:09;4.23;;;3.57;;
14599;SDS011;7386;45.586;12.854;2023-05-10T02:20:40;4.03;;;3.63;;
14599;SDS011;7386;45.586;12.854;2023-05-10T02:23:10;6.53;;;3.90;;
14599;SDS011;7386;45.586;12.854;2023-05-10T02:25:39;5.63;;;4.10;;
14599;SDS011;7386;45.586;12.854;2023-05-10T02:28:07;6.47;;;4.23;;
14599;SDS011;7386;45.586;12.854;2023-05-10T02:30:36;4.77;;;4.00;;
14599;SDS011;7386;45.586;12.854;2023-05-10T02:33:05;6.47;;;4.53;;
14599;SDS011;7386;45.586;12.854;2023-05-10T02:35:34;5.73;;;4.10;;
14599;SDS011;7386;45.586;12.854;2023-05-10T02:38:05;6.20;;;4.43;;
14599;SDS011;7386;45.586;12.854;2023-05-10T02:40:34;4.97;;;4.00;;
14599;SDS011;7386;45.586;12.854;2023-05-10T02:43:04;5.37;;;4.33;;
14599;SDS011;7386;45.586;12.854;2023-05-10T02:45:34;6.27;;;4.30;;
14599;SDS011;7386;45.586;12.854;2023-05-10T02:48:05;5.50;;;4.33;;
14599;SDS011;7386;45.586;12.854;2023-05-10T02:50:34;5.23;;;4.47;;
14599;SDS011;7386;45.586;12.854;2023-05-10T02:53:06;5.60;;;4.30;;
14599;SDS011;7386;45.586;12.854;2023-05-10T02:55:38;5.60;;;4.60;;
14599;SDS011;7386;45.586;12.854;2023-05-10T02:58:08;5.63;;;4.33;;
14599;SDS011;7386;45.586;12.854;2023-05-10T03:00:36;4.77;;;4.20;;
14599;SDS011;7386;45.586;12.854;2023-05-10T03:03:05;6.30;;;4.67;;
14599;SDS011;7386;45.586;12.854;2023-05-10T03:05:34;5.73;;;4.40;;
14599;SDS011;7386;45.586;12.854;2023-05-10T03:08:02;5.07;;;4.30;;
14599;SDS011;7386;45.586;12.854;2023-05-10T03:10:33;7.50;;;4.33;;
14599;SDS011;7386;45.586;12.854;2023-05-10T03:13:07;6.73;;;4.27;;
14599;SDS011;7386;45.586;12.854;2023-05-10T03:15:42;4.67;;;4.00;;
14599;SDS011;7386;45.586;12.854;2023-05-10T03:18:12;5.30;;;4.23;;
14599;SDS011;7386;45.586;12.854;2023-05-10T03:20:47;5.90;;;4.40;;
14599;SDS011;7386;45.586;12.854;2023-05-10T03:23:20;5.20;;;4.00;;
14599;SDS011;7386;45.586;12.854;2023-05-10T03:25:50;5.20;;;4.40;;
14599;SDS011;7386;45.586;12.854;2023-05-10T03:28:19;5.53;;;4.40;;
14599;SDS011;7386;45.586;12.854;2023-05-10T03:30:49;5.50;;;4.00;;
14599;SDS011;7386;45.586;12.854;2023-05-10T03:33:17;6.23;;;4.50;;
14599;SDS011;7386;45.586;12.854;2023-05-10T03:35:46;5.33;;;4.47;;
14599;SDS011;7386;45.586;12.854;2023-05-10T03:38:14;5.43;;;4.20;;
14599;SDS011;7386;45.586;12.854;2023-05-10T03:40:43;5.10;;;4.07;;
14599;SDS011;7386;45.586;12.854;2023-05-10T03:43:13;5.17;;;4.30;;
14599;SDS011;7386;45.586;12.854;2023-05-10T03:45:41;6.57;;;4.40;;
14599;SDS011;7386;45.586;12.854;2023-05-10T03:48:10;5.47;;;4.57;;
14599;SDS011;7386;45.586;12.854;2023-05-10T03:50:40;4.33;;;3.93;;
14599;SDS011;7386;45.586;12.854;2023-05-10T03:53:09;5.83;;;4.20;;
14599;SDS011;7386;45.586;12.854;2023-05-10T03:55:37;5.90;;;4.07;;
14599;SDS011;7386;45.586;12.854;2023-05-10T03:58:05;5.50;;;4.47;;
14599;SDS011;7386;45.586;12.854;2023-05-10T04:00:35;6.03;;;4.67;;
14599;SDS011;7386;45.586;12.854;2023-05-10T04:03:09;5.17;;;4.33;;
14599;SDS011;7386;45.586;12.854;2023-05-10T04:05:38;5.17;;;4.40;;
14599;SDS011;7386;45.586;12.854;2023-05-10T04:08:06;5.20;;;4.43;;
14599;SDS011;7386;45.586;12.854;2023-05-10T04:10:35;5.33;;;4.30;;
14599;SDS011;7386;45.586;12.854;2023-05-10T04:13:04;4.93;;;4.30;;
14599;SDS011;7386;45.586;12.854;2023-05-10T04:15:32;6.83;;;4.33;;
14599;SDS011;7386;45.586;12.854;2023-05-10T04:18:03;5.50;;;4.70;;
14599;SDS011;7386;45.586;12.854;2023-05-10T04:20:34;5.87;;;4.80;;
14599;SDS011;7386;45.586;12.854;2023-05-10T04:23:02;5.50;;;4.27;;
14599;SDS011;7386;45.586;12.854;2023-05-10T04:25:33;5.60;;;4.20;;
14599;SDS011;7386;45.586;12.854;2023-05-10T04:28:02;4.73;;;4.17;;
14599;SDS011;7386;45.586;12.854;2023-05-10T04:30:30;5.97;;;4.23;;
14599;SDS011;7386;45.586;12.854;2023-05-10T04:32:59;6.00;;;4.23;;
14599;SDS011;7386;45.586;12.854;2023-05-10T04:35:30;6.43;;;4.50;;
14599;SDS011;7386;45.586;12.854;2023-05-10T04:37:58;5.97;;;4.50;;
14599;SDS011;7386;45.586;12.854;2023-05-10T04:40:27;7.27;;;5.03;;
14599;SDS011;7386;45.586;12.854;2023-05-10T04:42:55;6.53;;;4.83;;
14599;SDS011;7386;45.586;12.854;2023-05-10T04:45:23;7.20;;;4.70;;
14599;SDS011;7386;45.586;12.854;2023-05-10T04:47:52;6.43;;;4.60;;
14599;SDS011;7386;45.586;12.854;2023-05-10T04:50:20;6.97;;;4.23;;
14599;SDS011;7386;45.586;12.854;2023-05-10T04:52:50;6.30;;;4.70;;
14599;SDS011;7386;45.586;12.854;2023-05-10T04:55:19;5.43;;;4.40;;
14599;SDS011;7386;45.586;12.854;2023-05-10T04:57:47;8.93;;;4.70;;
14599;SDS011;7386;45.586;12.854;2023-05-10T05:00:16;7.03;;;5.03;;
14599;SDS011;7386;45.586;12.854;2023-05-10T05:02:44;6.90;;;5.13;;
14599;SDS011;7386;45.586;12.854;2023-05-10T05:05:13;7.93;;;4.93;;
14599;SDS011;7386;45.586;12.854;2023-05-10T05:07:42;6.83;;;5.30;;
14599;SDS011;7386;45.586;12.854;2023-05-10T05:10:11;6.27;;;5.00;;
14599;SDS011;7386;45.586;12.854;2023-05-10T05:12:40;6.97;;;5.10;;
14599;SDS011;7386;45.586;12.854;2023-05-10T05:15:09;6.63;;;5.33;;
14599;SDS011;7386;45.586;12.854;2023-05-10T05:17:38;6.80;;;5.13;;
14599;SDS011;7386;45.586;12.854;2023-05-10T05:20:06;7.30;;;5.50;;
14599;SDS011;7386;45.586;12.854;2023-05-10T05:22:35;6.43;;;5.27;;
14599;SDS011;7386;45.586;12.854;2023-05-10T05:25:04;7.40;;;5.50;;
14599;SDS011;7386;45.586;12.854;2023-05-10T05:27:34;7.97;;;5.77;;
14599;SDS011;7386;45.586;12.854;2023-05-10T05:30:03;7.23;;;5.70;;
14599;SDS011;7386;45.586;12.854;2023-05-10T05:32:32;7.27;;;5.63;;
14599;SDS011;7386;45.586;12.854;2023-05-10T05:35:00;6.17;;;5.53;;
14599;SDS011;7386;45.586;12.854;2023-05-10T05:37:28;7.23;;;5.60;;
14599;SDS011;7386;45.586;12.854;2023-05-10T05:39:57;7.27;;;5.63;;
14599;SDS011;7386;45.586;12.854;2023-05-10T05:42:27;6.93;;;5.57;;
14599;SDS011;7386;45.586;12.854;2023-05-10T05:44:57;6.53;;;5.73;;
14599;SDS011;7386;45.586;12.854;2023-05-10T05:47:26;7.30;;;5.93;;
14599;SDS011;7386;45.586;12.854;2023-05-10T05:49:54;6.30;;;5.30;;
14599;SDS011;7386;45.586;12.854;2023-05-10T05:52:23;7.03;;;5.50;;
14599;SDS011;7386;45.586;12.854;2023-05-10T05:54:51;8.17;;;6.47;;
14599;SDS011;7386;45.586;12.854;2023-05-10T05:57:20;7.00;;;5.93;;
14599;SDS011;7386;45.586;12.854;2023-05-10T05:59:49;10.17;;;6.30;;
14599;SDS011;7386;45.586;12.854;2023-05-10T06:02:18;7.33;;;5.67;;
14599;SDS011;7386;45.586;12.854;2023-05-10T06:04:47;8.63;;;6.10;;
14599;SDS011;7386;45.586;12.854;2023-05-10T06:07:15;6.90;;;5.37;;
14599;SDS011;7386;45.586;12.854;2023-05-10T06:09:44;7.60;;;6.00;;
14599;SDS011;7386;45.586;12.854;2023-05-10T06:12:12;6.77;;;5.97;;
14599;SDS011;7386;45.586;12.854;2023-05-10T06:14:41;6.77;;;5.87;;
14599;SDS011;7386;45.586;12.854;2023-05-10T06:17:09;6.77;;;5.77;;
14599;SDS011;7386;45.586;12.854;2023-05-10T06:19:39;8.17;;;5.97;;
14599;SDS011;7386;45.586;12.854;2023-05-10T06:22:08;8.47;;;5.90;;
14599;SDS011;7386;45.586;12.854;2023-05-10T06:24:36;6.97;;;5.83;;
14599;SDS011;7386;45.586;12.854;2023-05-10T06:27:05;8.60;;;6.23;;
14599;SDS011;7386;45.586;12.854;2023-05-10T06:29:33;6.83;;;6.00;;
14599;SDS011;7386;45.586;12.854;2023-05-10T06:32:02;7.37;;;5.77;;
14599;SDS011;7386;45.586;12.854;2023-05-10T06:34:31;8.07;;;6.17;;
14599;SDS011;7386;45.586;12.854;2023-05-10T06:37:00;8.47;;;5.87;;
14599;SDS011;7386;45.586;12.854;2023-05-10T06:39:29;6.43;;;5.73;;
14599;SDS011;7386;45.586;12.854;2023-05-10T06:41:58;7.50;;;5.77;;
14599;SDS011;7386;45.586;12.854;2023-05-10T06:44:27;7.50;;;4.70;;
14599;SDS011;7386;45.586;12.854;2023-05-10T06:46:55;5.00;;;3.80;;
14599;SDS011;7386;45.586;12.854;2023-05-10T06:49:24;5.13;;;3.50;;
14599;SDS011;7386;45.586;12.854;2023-05-10T06:51:52;5.13;;;3.90;;
14599;SDS011;7386;45.586;12.854;2023-05-10T06:54:22;4.90;;;4.00;;
14599;SDS011;7386;45.586;12.854;2023-05-10T06:56:51;4.83;;;3.83;;
14599;SDS011;7386;45.586;12.854;2023-05-10T06:59:20;4.90;;;4.07;;
14599;SDS011;7386;45.586;12.854;2023-05-10T07:01:48;4.93;;;3.93;;
14599;SDS011;7386;45.586;12.854;2023-05-10T07:04:18;4.93;;;4.00;;
14599;SDS011;7386;45.586;12.854;2023-05-10T07:06:46;4.90;;;3.50;;
14599;SDS011;7386;45.586;12.854;2023-05-10T07:09:15;4.07;;;3.60;;
14599;SDS011;7386;45.586;12.854;2023-05-10T07:11:45;4.93;;;4.00;;
14599;SDS011;7386;45.586;12.854;2023-05-10T07:14:14;5.00;;;4.00;;
14599;SDS011;7386;45.586;12.854;2023-05-10T07:16:42;4.57;;;3.90;;
14599;SDS011;7386;45.586;12.854;2023-05-10T07:19:11;3.95;;;3.28;;
14599;SDS011;7386;45.586;12.854;2023-05-10T07:21:39;4.87;;;3.87;;
14599;SDS011;7386;45.586;12.854;2023-05-10T07:24:09;6.20;;;4.10;;
14599;SDS011;7386;45.586;12.854;2023-05-10T07:26:37;5.45;;;3.95;;
14599;SDS011;7386;45.586;12.854;2023-05-10T07:29:07;5.17;;;3.77;;
14599;SDS011;7386;45.586;12.854;2023-05-10T07:31:36;5.70;;;4.00;;
14599;SDS011;7386;45.586;12.854;2023-05-10T07:34:04;5.53;;;4.05;;
14599;SDS011;7386;45.586;12.854;2023-05-10T07:36:33;4.93;;;4.10;;
14599;SDS011;7386;45.586;12.854;2023-05-10T07:39:01;5.75;;;3.53;;
14599;SDS011;7386;45.586;12.854;2023-05-10T07:41:30;4.80;;;4.05;;
14599;SDS011;7386;45.586;12.854;2023-05-10T07:44:00;5.10;;;4.30;;
14599;SDS011;7386;45.586;12.854;2023-05-10T07:46:30;5.70;;;4.57;;
14599;SDS011;7386;45.586;12.854;2023-05-10T07:48:59;6.15;;;4.35;;
14599;SDS011;7386;45.586;12.854;2023-05-10T07:51:27;5.38;;;4.55;;
14599;SDS011;7386;45.586;12.854;2023-05-10T07:53:56;6.68;;;4.75;;
14599;SDS011;7386;45.586;12.854;2023-05-10T07:56:25;4.63;;;3.90;;
14599;SDS011;7386;45.586;12.854;2023-05-10T07:58:55;7.40;;;4.43;;
14599;SDS011;7386;45.586;12.854;2023-05-10T08:01:24;4.78;;;3.97;;
14599;SDS011;7386;45.586;12.854;2023-05-10T08:03:54;5.30;;;3.65;;
14599;SDS011;7386;45.586;12.854;2023-05-10T08:06:23;4.57;;;3.60;;
14599;SDS011;7386;45.586;12.854;2023-05-10T08:08:53;4.70;;;3.78;;
14599;SDS011;7386;45.586;12.854;2023-05-10T08:11:22;5.65;;;4.28;;
14599;SDS011;7386;45.586;12.854;2023-05-10T08:13:50;4.95;;;4.28;;
14599;SDS011;7386;45.586;12.854;2023-05-10T08:16:19;4.82;;;3.78;;
14599;SDS011;7386;45.586;12.854;2023-05-10T08:18:48;4.53;;;3.75;;
14599;SDS011;7386;45.586;12.854;2023-05-10T08:21:18;5.03;;;4.10;;
14599;SDS011;7386;45.586;12.854;2023-05-10T08:23:47;3.97;;;3.58;;
14599;SDS011;7386;45.586;12.854;2023-05-10T08:26:15;5.57;;;3.55;;
14599;SDS011;7386;45.586;12.854;2023-05-10T08:28:45;5.32;;;4.13;;
14599;SDS011;7386;45.586;12.854;2023-05-10T08:31:13;6.28;;;4.90;;
14599;SDS011;7386;45.586;12.854;2023-05-10T08:33:41;7.72;;;6.07;;
14599;SDS011;7386;45.586;12.854;2023-05-10T08:36:10;10.35;;;7.18;;
14599;SDS011;7386;45.586;12.854;2023-05-10T08:38:41;7.85;;;6.30;;
14599;SDS011;7386;45.586;12.854;2023-05-10T08:41:10;8.88;;;6.70;;
14599;SDS011;7386;45.586;12.854;2023-05-10T08:43:39;9.60;;;7.43;;
14599;SDS011;7386;45.586;12.854;2023-05-10T08:46:12;10.20;;;8.00;;
14599;SDS011;7386;45.586;12.854;2023-05-10T08:48:43;10.47;;;8.10;;
14599;SDS011;7386;45.586;12.854;2023-05-10T08:51:13;11.40;;;8.53;;
14599;SDS011;7386;45.586;12.854;2023-05-10T08:53:44;11.37;;;8.63;;
14599;SDS011;7386;45.586;12.854;2023-05-10T08:56:12;12.63;;;9.83;;
14599;SDS011;7386;45.586;12.854;2023-05-10T08:58:41;15.13;;;10.63;;
14599;SDS011;7386;45.586;12.854;2023-05-10T09:01:10;13.87;;;9.60;;
14599;SDS011;7386;45.586;12.854;2023-05-10T09:03:39;16.33;;;11.87;;
14599;SDS011;7386;45.586;12.854;2023-05-10T09:06:08;16.97;;;11.13;;
14599;SDS011;7386;45.586;12.854;2023-05-10T09:08:36;22.47;;;13.03;;
14599;SDS011;7386;45.586;12.854;2023-05-10T09:11:07;23.93;;;16.40;;
14599;SDS011;7386;45.586;12.854;2023-05-10T09:13:35;17.93;;;13.70;;
14599;SDS011;7386;45.586;12.854;2023-05-10T09:16:04;19.33;;;14.07;;
14599;SDS011;7386;45.586;12.854;2023-05-10T09:18:46;20.43;;;14.07;;
14599;SDS011;7386;45.586;12.854;2023-05-10T09:21:15;16.33;;;12.47;;
14599;SDS011;7386;45.586;12.854;2023-05-10T09:23:44;22.20;;;14.77;;
14599;SDS011;7386;45.586;12.854;2023-05-10T09:26:15;19.13;;;13.13;;
14599;SDS011;7386;45.586;12.854;2023-05-10T09:28:50;18.07;;;14.17;;
14599;SDS011;7386;45.586;12.854;2023-05-10T09:31:19;20.97;;;15.40;;
14599;SDS011;7386;45.586;12.854;2023-05-10T09:33:48;19.53;;;12.83;;
14599;SDS011;7386;45.586;12.854;2023-05-10T09:36:17;25.53;;;18.60;;
14599;SDS011;7386;45.586;12.854;2023-05-10T09:38:46;25.17;;;18.10;;
14599;SDS011;7386;45.586;12.854;2023-05-10T09:41:17;25.53;;;17.87;;
14599;SDS011;7386;45.586;12.854;2023-05-10T09:43:46;29.00;;;19.27;;
14599;SDS011;7386;45.586;12.854;2023-05-10T09:46:15;20.43;;;15.47;;
14599;SDS011;7386;45.586;12.854;2023-05-10T09:48:44;24.93;;;17.10;;
14599;SDS011;7386;45.586;12.854;2023-05-10T09:51:20;23.17;;;16.77;;
14599;SDS011;7386;45.586;12.854;2023-05-10T09:53:48;31.60;;;21.83;;
14599;SDS011;7386;45.586;12.854;2023-05-10T09:59:04;23.73;;;17.17;;
14599;SDS011;7386;45.586;12.854;2023-05-10T10:01:33;28.00;;;19.50;;
14599;SDS011;7386;45.586;12.854;2023-05-10T10:04:02;30.53;;;20.63;;
14599;SDS011;7386;45.586;12.854;2023-05-10T10:06:34;32.27;;;22.60;;
14599;SDS011;7386;45.586;12.854;2023-05-10T10:09:04;34.10;;;24.07;;
14599;SDS011;7386;45.586;12.854;2023-05-10T10:11:33;29.33;;;18.93;;
14599;SDS011;7386;45.586;12.854;2023-05-10T10:14:03;34.07;;;24.20;;
14599;SDS011;7386;45.586;12.854;2023-05-10T10:16:32;35.23;;;24.47;;
14599;SDS011;7386;45.586;12.854;2023-05-10T10:19:00;32.43;;;23.53;;
14599;SDS011;7386;45.586;12.854;2023-05-10T10:21:29;33.53;;;24.27;;
14599;SDS011;7386;45.586;12.854;2023-05-10T10:23:58;23.00;;;17.40;;
14599;SDS011;7386;45.586;12.854;2023-05-10T10:26:26;35.80;;;24.87;;
14599;SDS011;7386;45.586;12.854;2023-05-10T10:28:57;39.00;;;27.07;;
14599;SDS011;7386;45.586;12.854;2023-05-10T10:31:32;35.03;;;25.10;;
14599;SDS011;7386;45.586;12.854;2023-05-10T10:34:03;44.80;;;30.90;;
14599;SDS011;7386;45.586;12.854;2023-05-10T10:36:39;32.90;;;23.80;;
14599;SDS011;7386;45.586;12.854;2023-05-10T10:39:09;31.30;;;22.17;;
14599;SDS011;7386;45.586;12.854;2023-05-10T10:41:38;35.87;;;22.87;;
14599;SDS011;7386;45.586;12.854;2023-05-10T10:44:23;24.47;;;17.37;;
14599;SDS011;7386;45.586;12.854;2023-05-10T10:47:03;36.17;;;25.13;;
14599;SDS011;7386;45.586;12.854;2023-05-10T10:49:38;26.23;;;18.57;;
14599;SDS011;7386;45.586;12.854;2023-05-10T10:52:13;37.47;;;27.37;;
14599;SDS011;7386;45.586;12.854;2023-05-10T10:54:46;40.27;;;27.17;;
14599;SDS011;7386;45.586;12.854;2023-05-10T10:57:15;25.00;;;19.10;;
14599;SDS011;7386;45.586;12.854;2023-05-10T10:59:46;30.50;;;21.60;;
14599;SDS011;7386;45.586;12.854;2023-05-10T11:08:17;28.00;;;20.13;;
14599;SDS011;7386;45.586;12.854;2023-05-10T11:10:53;34.83;;;25.27;;
14599;SDS011;7386;45.586;12.854;2023-05-10T11:13:28;35.23;;;23.87;;
14599;SDS011;7386;45.586;12.854;2023-05-10T11:15:57;30.23;;;21.13;;
14599;SDS011;7386;45.586;12.854;2023-05-10T11:18:26;48.60;;;32.57;;
14599;SDS011;7386;45.586;12.854;2023-05-10T11:20:56;31.43;;;21.90;;
14599;SDS011;7386;45.586;12.854;2023-05-10T11:23:30;31.83;;;21.13;;
14599;SDS011;7386;45.586;12.854;2023-05-10T11:26:00;25.40;;;18.87;;
14599;SDS011;7386;45.586;12.854;2023-05-10T11:28:28;32.07;;;22.97;;
14599;SDS011;7386;45.586;12.854;2023-05-10T11:30:57;47.57;;;32.00;;
14599;SDS011;7386;45.586;12.854;2023-05-10T11:33:25;31.27;;;21.97;;
14599;SDS011;7386;45.586;12.854;2023-05-10T11:35:54;35.43;;;24.13;;
14599;SDS011;7386;45.586;12.854;2023-05-10T11:38:22;34.93;;;24.43;;
14599;SDS011;7386;45.586;12.854;2023-05-10T11:40:52;39.73;;;29.13;;
14599;SDS011;7386;45.586;12.854;2023-05-10T11:43:23;56.83;;;35.80;;
14599;SDS011;7386;45.586;12.854;2023-05-10T11:45:54;52.47;;;34.67;;
14599;SDS011;7386;45.586;12.854;2023-05-10T11:48:22;50.07;;;35.87;;
14599;SDS011;7386;45.586;12.854;2023-05-10T11:50:51;35.07;;;25.43;;
14599;SDS011;7386;45.586;12.854;2023-05-10T11:53:24;34.33;;;24.63;;
14599;SDS011;7386;45.586;12.854;2023-05-10T11:55:55;43.77;;;32.20;;
14599;SDS011;7386;45.586;12.854;2023-05-10T11:58:30;48.73;;;32.03;;
14599;SDS011;7386;45.586;12.854;2023-05-10T12:00:59;45.20;;;32.70;;
14599;SDS011;7386;45.586;12.854;2023-05-10T12:03:27;51.17;;;34.33;;
14599;SDS011;7386;45.586;12.854;2023-05-10T12:05:57;47.22;;;33.28;;
14599;SDS011;7386;45.586;12.854;2023-05-10T12:08:26;39.33;;;27.10;;
14599;SDS011;7386;45.586;12.854;2023-05-10T12:11:03;35.57;;;25.47;;
14599;SDS011;7386;45.586;12.854;2023-05-10T12:13:32;33.40;;;25.08;;
14599;SDS011;7386;45.586;12.854;2023-05-10T12:16:00;37.55;;;26.38;;
14599;SDS011;7386;45.586;12.854;2023-05-10T12:18:40;33.50;;;24.88;;
14599;SDS011;7386;45.586;12.854;2023-05-10T12:21:10;25.88;;;20.10;;
14599;SDS011;7386;45.586;12.854;2023-05-10T12:23:39;27.17;;;18.42;;
14599;SDS011;7386;45.586;12.854;2023-05-10T12:26:09;25.92;;;18.88;;
14599;SDS011;7386;45.586;12.854;2023-05-10T12:28:38;23.20;;;18.37;;
14599;SDS011;7386;45.586;12.854;2023-05-10T12:31:07;26.30;;;20.38;;
14599;SDS011;7386;45.586;12.854;2023-05-10T12:33:36;31.97;;;23.53;;
14599;SDS011;7386;45.586;12.854;2023-05-10T12:36:08;25.10;;;18.63;;
14599;SDS011;7386;45.586;12.854;2023-05-10T12:38:37;24.87;;;18.77;;
14599;SDS011;7386;45.586;12.854;2023-05-10T12:41:06;28.10;;;20.83;;
14599;SDS011;7386;45.586;12.854;2023-05-10T12:43:36;30.75;;;21.77;;
14599;SDS011;7386;45.586;12.854;2023-05-10T12:46:06;33.77;;;23.50;;
14599;SDS011;7386;45.586;12.854;2023-05-10T12:48:35;27.50;;;20.10;;
14599;SDS011;7386;45.586;12.854;2023-05-10T12:51:04;27.83;;;20.53;;
14599;SDS011;7386;45.586;12.854;2023-05-10T12:53:35;27.83;;;20.43;;
14599;SDS011;7386;45.586;12.854;2023-05-10T12:56:06;26.90;;;20.63;;
14599;SDS011;7386;45.586;12.854;2023-05-10T12:58:34;30.45;;;22.00;;
14599;SDS011;7386;45.586;12.854;2023-05-10T13:01:04;30.40;;;22.83;;
14599;SDS011;7386;45.586;12.854;2023-05-10T13:03:33;33.57;;;23.47;;
14599;SDS011;7386;45.586;12.854;2023-05-10T13:06:01;31.70;;;22.95;;
14599;SDS011;7386;45.586;12.854;2023-05-10T13:08:30;33.73;;;25.33;;
14599;SDS011;7386;45.586;12.854;2023-05-10T13:11:00;33.42;;;24.63;;
14599;SDS011;7386;45.586;12.854;2023-05-10T13:13:28;30.23;;;23.55;;
14599;SDS011;7386;45.586;12.854;2023-05-10T13:15:57;34.95;;;26.02;;
14599;SDS011;7386;45.586;12.854;2023-05-10T13:18:26;32.75;;;24.27;;
14599;SDS011;7386;45.586;12.854;2023-05-10T13:20:55;28.70;;;21.33;;
14599;SDS011;7386;45.586;12.854;2023-05-10T13:23:23;24.65;;;19.05;;
14599;SDS011;7386;45.586;12.854;2023-05-10T13:25:52;23.47;;;18.40;;
14599;SDS011;7386;45.586;12.854;2023-05-10T13:28:20;17.70;;;14.75;;
14599;SDS011;7386;45.586;12.854;2023-05-10T13:30:49;30.47;;;23.27;;
14599;SDS011;7386;45.586;12.854;2023-05-10T13:33:17;32.07;;;22.37;;
14599;SDS011;7386;45.586;12.854;2023-05-10T13:35:47;26.93;;;21.00;;
14599;SDS011;7386;45.586;12.854;2023-05-10T13:38:16;32.47;;;24.77;;
14599;SDS011;7386;45.586;12.854;2023-05-10T13:40:47;26.70;;;19.73;;
14599;SDS011;7386;45.586;12.854;2023-05-10T13:43:19;19.13;;;16.00;;
14599;SDS011;7386;45.586;12.854;2023-05-10T13:45:47;26.97;;;21.30;;
14599;SDS011;7386;45.586;12.854;2023-05-10T13:48:15;27.13;;;21.00;;
14599;SDS011;7386;45.586;12.854;2023-05-10T13:50:44;23.23;;;17.20;;
14599;SDS011;7386;45.586;12.854;2023-05-10T13:53:14;24.57;;;19.97;;
14599;SDS011;7386;45.586;12.854;2023-05-10T13:55:42;27.60;;;21.07;;
14599;SDS011;7386;45.586;12.854;2023-05-10T13:58:11;23.97;;;17.73;;
14599;SDS011;7386;45.586;12.854;2023-05-10T14:00:39;35.67;;;24.60;;
14599;SDS011;7386;45.586;12.854;2023-05-10T14:03:07;32.50;;;25.67;;
14599;SDS011;7386;45.586;12.854;2023-05-10T14:05:37;24.07;;;18.43;;
14599;SDS011;7386;45.586;12.854;2023-05-10T14:08:06;31.70;;;24.43;;
14599;SDS011;7386;45.586;12.854;2023-05-10T14:10:37;38.13;;;25.83;;
14599;SDS011;7386;45.586;12.854;2023-05-10T14:13:05;26.57;;;20.17;;
14599;SDS011;7386;45.586;12.854;2023-05-10T14:15:34;28.33;;;23.33;;
14599;SDS011;7386;45.586;12.854;2023-05-10T14:18:02;42.37;;;28.10;;
14599;SDS011;7386;45.586;12.854;2023-05-10T14:20:31;27.00;;;21.70;;
14599;SDS011;7386;45.586;12.854;2023-05-10T14:23:00;35.40;;;27.37;;
14599;SDS011;7386;45.586;12.854;2023-05-10T14:25:28;33.13;;;24.97;;
14599;SDS011;7386;45.586;12.854;2023-05-10T14:27:58;28.67;;;21.50;;
14599;SDS011;7386;45.586;12.854;2023-05-10T14:30:27;38.20;;;29.47;;
14599;SDS011;7386;45.586;12.854;2023-05-10T14:32:55;43.53;;;30.50;;
14599;SDS011;7386;45.586;12.854;2023-05-10T14:35:24;32.90;;;25.67;;
14599;SDS011;7386;45.586;12.854;2023-05-10T14:37:53;42.17;;;30.30;;
14599;SDS011;7386;45.586;12.854;2023-05-10T14:40:21;60.60;;;40.70;;
14599;SDS011;7386;45.586;12.854;2023-05-10T14:42:51;66.03;;;45.33;;
14599;SDS011;7386;45.586;12.854;2023-05-10T14:45:21;70.63;;;48.47;;
14599;SDS011;7386;45.586;12.854;2023-05-10T14:47:50;70.77;;;49.63;;
14599;SDS011;7386;45.586;12.854;2023-05-10T14:50:18;68.83;;;48.00;;
14599;SDS011;7386;45.586;12.854;2023-05-10T14:53:01;70.50;;;51.03;;
14599;SDS011;7386;45.586;12.854;2023-05-10T14:55:30;80.77;;;53.83;;
14599;SDS011;7386;45.586;12.854;2023-05-10T14:57:59;73.43;;;48.63;;
14599;SDS011;7386;45.586;12.854;2023-05-10T15:00:29;77.20;;;52.83;;
14599;SDS011;7386;45.586;12.854;2023-05-10T15:02:58;81.57;;;56.07;;
14599;SDS011;7386;45.586;12.854;2023-05-10T15:05:27;68.63;;;48.80;;